createdAt,value
2023-04-02T00:06:36.448Z,7.67
2023-04-02T00:16:37.983Z,8.75
2023-04-02T00:26:44.252Z,9.07
2023-04-02T00:36:47.160Z,9.15
2023-04-02T00:46:49.975Z,8.00
2023-04-02T00:56:57.072Z,11.00
2023-04-02T01:06:59.148Z,8.82
2023-04-02T01:17:27.385Z,9.83
2023-04-02T01:27:38.025Z,8.73
2023-04-02T01:37:46.921Z,8.57
2023-04-02T01:47:49.354Z,8.07
2023-04-02T01:57:53.446Z,9.15
2023-04-02T02:07:56.577Z,6.27
2023-04-02T02:18:02.230Z,6.90
2023-04-02T02:28:32.966Z,9.77
2023-04-02T02:38:34.400Z,8.93
2023-04-02T02:48:38.994Z,12.40
2023-04-02T02:58:40.715Z,15.20
2023-04-02T03:08:51.103Z,14.23
2023-04-02T03:19:16.920Z,18.27
2023-04-02T03:29:33.186Z,16.27
2023-04-02T03:39:43.471Z,21.02
2023-04-02T03:50:07.475Z,22.20
2023-04-02T04:00:22.480Z,24.02
2023-04-02T04:10:26.700Z,23.00
2023-04-02T04:20:40.200Z,24.90
2023-04-02T04:30:53.408Z,27.27
2023-04-02T04:40:58.738Z,24.30
2023-04-02T04:51:05.233Z,21.42
2023-04-02T05:01:24.148Z,21.73
2023-04-02T05:11:32.731Z,21.47
2023-04-02T05:21:36.967Z,25.55
2023-04-02T05:31:45.646Z,25.80
2023-04-02T05:41:47.473Z,26.15
2023-04-02T05:51:52.440Z,28.77
2023-04-02T06:02:02.248Z,37.73
2023-04-02T06:12:27.700Z,37.00
2023-04-02T06:22:38.867Z,51.40
2023-04-02T06:32:40.451Z,72.78
2023-04-02T06:42:44.235Z,67.43
2023-04-02T06:53:02.273Z,62.63
2023-04-02T07:03:08.530Z,69.20
2023-04-02T07:13:19.205Z,58.73
2023-04-02T07:23:20.705Z,64.95
2023-04-02T07:33:25.551Z,66.93
2023-04-02T07:43:27.096Z,57.00
2023-04-02T07:53:36.932Z,63.28
2023-04-02T08:03:38.590Z,66.57
2023-04-02T08:13:40.283Z,69.85
2023-04-02T08:23:41.804Z,73.03
2023-04-02T08:33:43.465Z,65.37
2023-04-02T08:44:07.732Z,68.88
2023-04-02T08:54:31.559Z,63.13
2023-04-02T09:04:33.912Z,66.68
2023-04-02T09:15:00.597Z,58.97
2023-04-02T09:25:04.643Z,63.10
2023-04-02T09:35:25.550Z,53.08
2023-04-02T09:45:27.989Z,41.87
2023-04-02T09:55:29.842Z,38.55
2023-04-02T10:05:40.707Z,29.17
2023-04-02T10:16:11.608Z,25.30
2023-04-02T10:26:50.471Z,20.60
2023-04-02T10:37:00.100Z,25.10
2023-04-02T10:47:35.516Z,25.77
2023-04-02T10:57:39.827Z,27.87
2023-04-02T11:08:20.045Z,29.83
2023-04-02T11:18:30.754Z,29.15
2023-04-02T11:28:32.716Z,24.07
2023-04-02T11:38:46.274Z,26.73
2023-04-02T11:48:47.813Z,22.17
2023-04-02T11:59:14.405Z,20.57
2023-04-02T12:09:23.603Z,21.35
2023-04-02T12:19:26.635Z,22.53
2023-04-02T12:29:29.107Z,18.40
2023-04-02T12:39:32.485Z,13.10
2023-04-02T12:49:39.843Z,10.53
2023-04-02T12:59:42.739Z,14.98
2023-04-02T13:09:50.381Z,19.77
2023-04-02T13:19:51.909Z,16.83
2023-04-02T13:29:53.533Z,12.60
2023-04-02T13:39:54.976Z,11.07
2023-04-02T13:49:56.542Z,10.18
2023-04-02T13:59:58.094Z,11.97
2023-04-02T14:10:13.798Z,12.77
2023-04-02T14:20:29.780Z,15.27
2023-04-02T14:31:09.241Z,14.87
2023-04-02T14:41:22.376Z,7.63
2023-04-02T14:51:30.432Z,5.37
2023-04-02T15:01:37.941Z,4.38
2023-04-02T15:11:46.491Z,4.67
2023-04-02T15:22:15.269Z,4.30
2023-04-02T15:32:29.993Z,7.95
2023-04-02T15:42:37.845Z,12.90
2023-04-02T15:53:01.541Z,7.68
2023-04-02T16:03:37.796Z,4.97
2023-04-02T16:13:41.729Z,4.10
2023-04-02T16:23:43.543Z,4.03
2023-04-02T16:33:48.060Z,4.20
2023-04-02T16:43:59.893Z,3.03
2023-04-02T16:54:31.035Z,2.90
2023-04-02T17:04:51.314Z,2.70
2023-04-02T17:14:59.474Z,3.80
2023-04-02T17:25:04.384Z,2.73
2023-04-02T17:35:17.824Z,5.15
2023-04-02T17:45:37.435Z,3.07
2023-04-02T17:56:06.179Z,4.10
2023-04-02T18:06:15.089Z,3.63
2023-04-02T18:16:28.615Z,5.03
2023-04-02T18:26:48.167Z,7.03
2023-04-02T18:36:58.763Z,7.23
2023-04-02T18:47:15.409Z,6.90
2023-04-02T18:57:28.652Z,6.78
2023-04-02T19:07:35.721Z,6.20
2023-04-02T19:17:41.703Z,7.25
2023-04-02T19:27:55.074Z,6.97
2023-04-02T19:38:16.926Z,8.47
2023-04-02T19:48:24.516Z,11.15
2023-04-02T19:58:31.928Z,9.80
2023-04-02T20:08:33.724Z,10.98
2023-04-02T20:18:35.327Z,7.40
2023-04-02T20:28:36.873Z,5.27
2023-04-02T20:38:38.787Z,4.72
2023-04-02T20:48:40.344Z,4.10
2023-04-02T20:58:42.632Z,4.20
2023-04-02T21:08:45.250Z,4.80
2023-04-02T21:18:48.526Z,5.80
2023-04-02T21:28:49.982Z,5.05
2023-04-02T21:38:56.906Z,5.03
2023-04-02T21:48:59.584Z,3.72
2023-04-02T21:59:01.900Z,4.13
2023-04-02T22:09:06.865Z,5.17
2023-04-02T22:19:12.474Z,4.88
2023-04-02T22:29:14.796Z,4.10
2023-04-02T22:39:16.390Z,4.30
2023-04-02T22:49:17.901Z,4.63
2023-04-02T22:59:19.347Z,3.50
2023-04-02T23:09:20.914Z,4.57
2023-04-02T23:19:22.411Z,4.50
2023-04-02T23:29:24.005Z,3.85
2023-04-02T23:39:25.673Z,6.17
2023-04-02T23:49:27.889Z,4.63
2023-04-02T23:59:29.409Z,5.70
